San Luis Valley Regional Bergman Field
KALS : rendu visible

Aérodrome :











RETROUVEZ-NOUS SUR...

 
LOGIN :

S'inscrire | Disclaimer

   EN    FR    IT 

 









Légende :    VFR   VFR Marginal   IFR   IFR Intensif   IFR Très Intensif
Visi : 
Plafond : 
>= 8 km
>= 3000ft
5 à 8 km
1000 à 3000 ft
1500m à 5 km
500 à 1000 ft
800 à 1500m
200 à 500 ft
< 800m
< 200 ft
Symboles :   Orages  Brouillard  Fortes neiges  Fortes précipitations  Vent > 20 kt






- Altitude de l'aérodrome : 7539 ft


KALS - San Luis Valley Regional Bergman Field

DERNIER METAR :
  • 271252Z AUTO 00000KT 10SM CLR 09/M02 A3024 RMK AO2 SLP155 T00891017

METARs EXPIRÉS :
  • 271152Z AUTO 00000KT 10SM CLR 07/M02 A3022 RMK AO2 SLP148 T00671022 10161 20044 53008
  • 271052Z AUTO 23004KT 10SM CLR 05/M03 A3020 RMK AO2 SLP146 T00501028

TAF KALS
Valide du 27 à 12h jusqu'au 28 à 12h UTC


271121Z 2712/2812 VRB04KT P6SM FEW100
FM271800 36008KT P6SM SCT100 SCT200
FM272300 03010KT P6SM VCTS SCT080CB BKN150
FM280200 09009KT P6SM SCT080 BKN150
FM280600 VRB04KT P6SM FEW080
FIR KZDV / Amérique du Nord



MET'MAP, la Météo Aéronautique d'un coup d'oeil ! - Copyright ORBIFLY Décembre 2007 - Disclaimer

ORBIFLY MET'MAP TEAM :

Programmation & Développement : Alexandra Zaïnal
Sur une idée originale de : Baudouin d'Aumeries
Assistance à la programmation : Marc-Olivier Méhu
Soutien technique & logistique : Manuel Goepfert

Contact : metmap@orbifly.com




SOURCES & CREDITS :

   NOAA       Earth
Advisory